Time;durP1;ratioP1;P1;durP2;ratioP2;P2;SDS_P1;SDS_P2;PMS_P1;PMS_P2;Temp;Humidity;BMP_temperature;BMP_pressure;BME280_temperature;BME280_humidity;BME280_pressure;Samples;Min_cycle;Max_cycle;Signal;HPM_P1;HPM_P2
2023/04/18 00:00:00;;;;;;;12.57;4.20;;;;;;;9.65;60.80;100433.25;124305;1102;104213;-80
2023/04/18 00:02:32;;;;;;;7.97;3.93;;;;;;;9.63;60.86;100434.93;124175;1102;104329;-80
2023/04/18 00:05:04;;;;;;;10.10;3.67;;;;;;;9.62;60.32;100435.75;124015;1105;104185;-79
2023/04/18 00:07:35;;;;;;;12.77;4.20;;;;;;;9.61;60.42;100431.34;123807;1102;104314;-80
2023/04/18 00:10:08;;;;;;;9.67;3.43;;;;;;;9.60;61.12;100433.89;123471;1105;104514;-80
2023/04/18 00:12:40;;;;;;;11.43;3.40;;;;;;;9.58;61.19;100431.22;123919;1102;104274;-79
2023/04/18 00:15:13;;;;;;;13.00;3.97;;;;;;;9.57;60.55;100429.45;123757;1102;104329;-80
2023/04/18 00:17:44;;;;;;;12.73;3.67;;;;;;;9.56;61.32;100434.63;124171;1102;102790;-80
2023/04/18 00:20:15;;;;;;;11.70;3.67;;;;;;;9.53;61.32;100430.16;123755;1102;104313;-80
2023/04/18 00:22:46;;;;;;;11.57;3.83;;;;;;;9.52;60.88;100433.60;123940;1102;104341;-80
2023/04/18 00:25:18;;;;;;;13.77;4.20;;;;;;;9.50;61.36;100425.69;123600;1102;104223;-81
2023/04/18 00:27:49;;;;;;;7.70;3.87;;;;;;;9.47;60.96;100429.92;123589;1102;104262;-80
2023/04/18 00:30:22;;;;;;;18.10;4.07;;;;;;;9.44;61.00;100427.18;123543;1102;104258;-80
2023/04/18 00:32:53;;;;;;;13.33;3.87;;;;;;;9.39;60.86;100424.38;123432;1105;104369;-80
2023/04/18 00:35:24;;;;;;;13.73;3.53;;;;;;;9.39;61.01;100421.76;123651;1106;104322;-80
2023/04/18 00:37:56;;;;;;;12.47;3.80;;;;;;;9.38;61.01;100422.61;123835;1101;104715;-80
2023/04/18 00:40:27;;;;;;;6.70;3.30;;;;;;;9.38;61.18;100421.70;123958;1102;104233;-79
2023/04/18 00:42:58;;;;;;;12.97;3.43;;;;;;;9.34;61.27;100421.58;123903;1105;104293;-80
2023/04/18 00:45:30;;;;;;;9.73;3.90;;;;;;;9.33;61.80;100421.52;123725;1102;104363;-80
2023/04/18 00:48:01;;;;;;;9.87;3.40;;;;;;;9.32;61.49;100418.02;123621;1102;104355;-80
2023/04/18 00:50:33;;;;;;;11.70;4.20;;;;;;;9.32;61.79;100424.99;123595;1102;104245;-81
2023/04/18 00:53:04;;;;;;;11.27;3.50;;;;;;;9.31;61.51;100426.70;123480;1103;104261;-81
2023/04/18 00:55:37;;;;;;;12.87;3.47;;;;;;;9.32;61.47;100422.38;123493;1102;104207;-80
2023/04/18 00:58:09;;;;;;;9.27;3.77;;;;;;;9.32;61.54;100427.61;123365;1103;104197;-81
2023/04/18 01:00:41;;;;;;;10.37;3.73;;;;;;;9.33;61.59;100430.29;123384;1102;104664;-80
2023/04/18 01:03:13;;;;;;;11.77;3.90;;;;;;;9.33;62.32;100425.05;123552;1105;104377;-80
2023/04/18 01:05:45;;;;;;;12.77;3.50;;;;;;;9.32;62.25;100428.49;123872;1101;104256;-81
2023/04/18 01:08:17;;;;;;;12.33;4.10;;;;;;;9.33;61.92;100427.67;123930;1102;105615;-81
2023/04/18 01:10:49;;;;;;;16.63;3.90;;;;;;;9.32;62.54;100428.49;123821;1102;104257;-81
2023/04/18 01:13:21;;;;;;;12.10;3.90;;;;;;;9.32;61.89;100424.99;123757;1102;104328;-80
2023/04/18 01:15:54;;;;;;;11.13;3.50;;;;;;;9.31;62.24;100421.45;123684;1102;104350;-80
2023/04/18 01:18:26;;;;;;;10.65;4.35;;;;;;;9.30;62.35;100430.17;123540;1102;104317;-80
2023/04/18 01:20:59;;;;;;;13.67;3.47;;;;;;;9.28;62.32;100420.45;123344;1102;104316;-80
2023/04/18 01:23:30;;;;;;;10.57;3.70;;;;;;;9.29;62.45;100425.75;123470;1103;104307;-81
2023/04/18 01:26:02;;;;;;;10.20;3.33;;;;;;;9.28;62.68;100425.69;123531;1102;104306;-81
2023/04/18 01:28:36;;;;;;;14.23;3.87;;;;;;;9.27;62.82;100421.28;123397;1105;104315;-79
2023/04/18 01:31:07;;;;;;;17.50;3.73;;;;;;;9.24;62.70;100429.01;123442;1102;104360;-80
2023/04/18 01:33:41;;;;;;;13.60;3.62;;;;;;;9.21;62.66;100421.03;123425;1102;104319;-81
2023/04/18 01:36:12;;;;;;;12.63;3.70;;;;;;;9.20;62.61;100424.50;123481;1102;104386;-80
2023/04/18 01:38:43;;;;;;;19.33;4.47;;;;;;;9.18;63.24;100427.06;123441;1105;104435;-81
2023/04/18 01:41:15;;;;;;;10.10;3.70;;;;;;;9.16;63.16;100416.53;123462;1102;104297;-80
2023/04/18 01:43:46;;;;;;;10.80;3.83;;;;;;;9.15;63.38;100421.70;123984;1105;104732;-81
2023/04/18 01:46:18;;;;;;;13.03;3.67;;;;;;;9.12;63.05;100419.84;123434;1102;104405;-80
2023/04/18 01:48:49;;;;;;;11.50;3.80;;;;;;;9.11;63.07;100422.39;123301;1102;104297;-80
2023/04/18 01:51:20;;;;;;;10.87;3.77;;;;;;;9.08;63.10;100417.03;123294;1103;104334;-80
2023/04/18 01:53:52;;;;;;;14.30;3.80;;;;;;;9.07;63.77;100410.92;123524;1102;104239;-80
2023/04/18 01:56:23;;;;;;;12.60;3.57;;;;;;;9.06;63.29;100424.83;123409;1102;104261;-79
2023/04/18 01:58:54;;;;;;;15.27;3.80;;;;;;;9.06;64.06;100429.17;123456;1106;104364;-81
2023/04/18 02:01:27;;;;;;;12.53;3.67;;;;;;;9.05;63.41;100428.27;123322;1102;117828;-82
2023/04/18 02:03:58;;;;;;;13.27;4.17;;;;;;;9.03;63.49;100421.20;123410;1105;104692;-81
2023/04/18 02:06:30;;;;;;;15.57;3.90;;;;;;;9.02;63.85;100422.02;123374;1103;104320;-82
2023/04/18 02:09:01;;;;;;;9.13;3.73;;;;;;;9.00;63.63;100422.84;123741;1105;104347;-81
2023/04/18 02:11:33;;;;;;;8.37;3.70;;;;;;;9.00;63.91;100433.31;123810;1102;104184;-82
2023/04/18 02:14:07;;;;;;;11.77;3.67;;;;;;;8.98;63.85;100427.13;123577;1102;104731;-82
2023/04/18 02:16:38;;;;;;;9.73;3.70;;;;;;;8.99;63.96;100425.39;123397;1105;104337;-82
2023/04/18 02:19:10;;;;;;;12.00;4.07;;;;;;;8.96;63.95;100423.57;123860;1102;104283;-81
2023/04/18 02:21:43;;;;;;;12.83;4.10;;;;;;;8.94;64.07;100427.86;123562;1105;104290;-82
2023/04/18 02:24:14;;;;;;;10.77;3.70;;;;;;;8.93;64.23;100418.20;123717;1102;104239;-81
2023/04/18 02:26:46;;;;;;;12.23;4.37;;;;;;;8.93;64.32;100418.20;123419;1101;104319;-82
2023/04/18 02:29:18;;;;;;;15.63;4.23;;;;;;;8.91;64.51;100417.27;123374;1102;104427;-81
2023/04/18 02:31:49;;;;;;;16.90;4.50;;;;;;;8.89;64.67;100421.52;123492;1102;104255;-81
2023/04/18 02:34:20;;;;;;;10.63;3.90;;;;;;;8.87;64.80;100417.95;123747;1105;104291;-81
2023/04/18 02:36:52;;;;;;;11.57;4.03;;;;;;;8.83;64.46;100416.03;123648;1102;104242;-81
2023/04/18 02:39:23;;;;;;;15.45;4.30;;;;;;;8.80;64.81;100416.81;123546;1102;104303;-81
2023/04/18 02:41:55;;;;;;;16.40;5.03;;;;;;;8.78;64.51;100407.98;123530;1105;104389;-81
2023/04/18 02:44:27;;;;;;;18.77;4.80;;;;;;;8.75;65.00;100412.21;123381;1105;104373;-81
2023/04/18 02:46:59;;;;;;;16.03;4.70;;;;;;;8.72;64.80;100409.47;123388;1105;104367;-82
2023/04/18 02:49:31;;;;;;;14.33;4.70;;;;;;;8.72;64.93;100401.62;123316;1105;104335;-82
2023/04/18 02:52:02;;;;;;;13.90;4.60;;;;;;;8.71;65.83;100408.59;123408;1105;104374;-82
2023/04/18 02:54:33;;;;;;;15.87;4.77;;;;;;;8.69;65.66;100410.22;123176;1103;104348;-82
2023/04/18 02:57:09;;;;;;;20.07;4.33;;;;;;;8.70;65.57;100411.14;123429;1103;104345;-81
2023/04/18 02:59:59;;;;;;;15.20;3.90;;;;;;;8.71;65.99;100415.52;123473;1102;104293;-80
2023/04/18 03:02:56;;;;;;;16.90;4.43;;;;;;;8.70;65.72;100417.25;124273;1102;104236;-81
2023/04/18 03:05:39;;;;;;;15.90;4.60;;;;;;;8.71;66.13;100419.05;123640;1103;104369;-80
2023/04/18 03:08:10;;;;;;;17.77;4.47;;;;;;;8.75;66.10;100415.71;123925;1105;104273;-82
2023/04/18 03:10:42;;;;;;;14.60;4.47;;;;;;;8.76;65.68;100417.52;123833;1105;104265;-82
2023/04/18 03:13:14;;;;;;;12.87;4.80;;;;;;;8.77;65.96;100418.39;123660;1102;112145;-82
2023/04/18 03:15:45;;;;;;;14.10;4.80;;;;;;;8.78;66.01;100414.95;123748;1105;104355;-81
2023/04/18 03:18:17;;;;;;;20.23;5.10;;;;;;;8.78;66.04;100420.19;123683;1105;104441;-82
2023/04/18 03:20:49;;;;;;;13.70;4.73;;;;;;;8.79;66.08;100420.25;124531;1106;104352;-82
2023/04/18 03:23:20;;;;;;;21.60;6.47;;;;;;;8.80;66.12;100410.67;123867;1102;104262;-81
2023/04/18 03:25:52;;;;;;;18.93;6.83;;;;;;;8.79;66.34;100419.38;123330;1106;104323;-81
2023/04/18 03:28:24;;;;;;;19.70;6.13;;;;;;;8.78;66.19;100418.45;123508;1102;104437;-81
2023/04/18 03:30:55;;;;;;;27.87;9.27;;;;;;;8.77;66.60;100415.78;123404;1102;104357;-81
2023/04/18 03:33:27;;;;;;;22.10;7.73;;;;;;;8.77;66.49;100421.92;123427;1103;104323;-82
2023/04/18 03:36:06;;;;;;;28.37;9.00;;;;;;;8.78;66.88;100428.04;123348;1105;104280;-82
2023/04/18 03:38:39;;;;;;;25.40;8.90;;;;;;;8.79;66.87;100424.61;123435;1102;104315;-82
2023/04/18 03:41:11;;;;;;;22.10;7.33;;;;;;;8.83;66.71;100426.50;123467;1103;104402;-82
2023/04/18 03:43:42;;;;;;;20.40;7.27;;;;;;;8.86;66.51;100421.39;123496;1106;104389;-84
2023/04/18 03:46:13;;;;;;;21.63;7.50;;;;;;;8.88;66.62;100432.84;123558;1102;104434;-84
2023/04/18 03:48:45;;;;;;;21.50;7.73;;;;;;;8.89;66.51;100420.63;123427;1105;105012;-84
2023/04/18 03:51:17;;;;;;;25.00;7.83;;;;;;;8.91;67.24;100421.58;123522;1102;104230;-84
2023/04/18 03:53:48;;;;;;;21.53;8.07;;;;;;;8.94;66.72;100434.80;123490;1102;104300;-84
2023/04/18 03:56:21;;;;;;;22.60;8.37;;;;;;;8.94;66.83;100424.33;123512;1102;104727;-83
2023/04/18 03:58:54;;;;;;;19.60;7.97;;;;;;;8.93;66.75;100426.06;123336;1102;104235;-84
2023/04/18 04:01:26;;;;;;;24.27;7.43;;;;;;;8.94;67.52;100420.00;123374;1105;104223;-84
2023/04/18 04:03:57;;;;;;;21.93;7.17;;;;;;;8.98;67.06;100421.89;123434;1102;104255;-83
2023/04/18 04:06:30;;;;;;;20.40;6.20;;;;;;;9.00;67.03;100421.95;123736;1105;104226;-82
2023/04/18 04:09:01;;;;;;;23.00;6.50;;;;;;;9.03;66.85;100423.82;123472;1106;104363;-83
2023/04/18 04:11:33;;;;;;;23.20;5.80;;;;;;;9.06;67.60;100422.20;123512;1105;104235;-83
2023/04/18 04:14:04;;;;;;;23.13;6.43;;;;;;;9.08;67.03;100417.03;123793;1102;104369;-82
2023/04/18 04:16:41;;;;;;;21.03;6.00;;;;;;;9.11;67.27;100412.80;123731;1105;104358;-85
2023/04/18 04:19:13;;;;;;;18.00;6.23;;;;;;;9.14;67.63;100417.28;124023;1103;104175;-82
2023/04/18 04:21:50;;;;;;;19.65;5.95;;;;;;;9.12;67.35;100418.95;123911;1105;104751;-81
2023/04/18 04:24:22;;;;;;;16.40;5.43;;;;;;;9.09;67.97;100424.07;123517;1105;104504;-78
2023/04/18 04:26:55;;;;;;;19.83;5.47;;;;;;;9.09;67.50;100416.22;124497;1102;104258;-79
2023/04/18 04:29:27;;;;;;;18.82;5.08;;;;;;;9.09;67.91;100418.83;124414;1102;104236;-81
2023/04/18 04:31:59;;;;;;;16.03;4.80;;;;;;;9.10;67.62;100420.59;124069;1103;104294;-81
2023/04/18 04:34:36;;;;;;;19.23;5.17;;;;;;;9.10;68.25;100413.66;123930;1102;104367;-79
2023/04/18 04:37:12;;;;;;;14.43;4.57;;;;;;;9.12;68.37;100416.34;124201;1105;104421;-80
2023/04/18 04:39:51;;;;;;;18.07;4.20;;;;;;;9.13;68.04;100426.87;124231;1102;104265;-79
2023/04/18 04:42:41;;;;;;;16.70;4.27;;;;;;;9.13;68.56;100425.95;124543;1102;104745;-80
2023/04/18 04:45:18;;;;;;;12.63;4.43;;;;;;;9.15;68.25;100425.20;124211;1105;104233;-80
2023/04/18 04:47:50;;;;;;;21.87;4.77;;;;;;;9.18;68.41;100433.17;124136;1102;104370;-79
2023/04/18 04:50:21;;;;;;;19.63;5.33;;;;;;;9.24;68.60;100424.69;124108;1102;104179;-78
2023/04/18 04:52:52;;;;;;;19.80;4.97;;;;;;;9.29;68.81;100430.98;124148;1105;104201;-81
2023/04/18 04:55:24;;;;;;;17.25;5.00;;;;;;;9.34;68.59;100431.17;124439;1103;104301;-83
2023/04/18 04:57:56;;;;;;;19.23;5.10;;;;;;;9.38;68.94;100425.23;124348;1102;102448;-79
2023/04/18 05:00:59;;;;;;;13.50;4.47;;;;;;;9.39;69.23;100432.23;123984;1103;104322;-80
2023/04/18 05:03:30;;;;;;;18.67;5.23;;;;;;;9.32;69.21;100438.97;123879;1105;104265;-77
2023/04/18 05:06:02;;;;;;;20.70;5.87;;;;;;;9.26;69.90;100440.45;123648;1102;104255;-80
2023/04/18 05:08:33;;;;;;;16.37;5.07;;;;;;;9.24;69.99;100450.87;124492;1102;104257;-78
2023/04/18 05:11:05;;;;;;;23.50;4.97;;;;;;;9.21;70.28;100453.36;124340;1105;104191;-82
2023/04/18 05:13:37;;;;;;;17.60;5.00;;;;;;;9.20;70.89;100455.92;125890;1105;103857;-78
2023/04/18 05:16:09;;;;;;;14.77;5.00;;;;;;;9.18;70.63;100461.97;124621;1104;104185;-77
2023/04/18 05:18:41;;;;;;;17.83;5.97;;;;;;;9.15;70.62;100458.34;124513;1105;104325;-77
2023/04/18 05:21:12;;;;;;;12.87;4.97;;;;;;;9.14;70.46;100467.91;124203;1105;103196;-77
2023/04/18 05:23:44;;;;;;;19.27;5.60;;;;;;;9.14;71.24;100474.87;124258;1105;104639;-77
2023/04/18 05:26:15;;;;;;;17.37;5.73;;;;;;;9.14;71.51;100467.02;124591;1105;104233;-76
2023/04/18 05:28:46;;;;;;;15.77;5.43;;;;;;;9.12;71.27;100471.31;124591;1105;103139;-81
2023/04/18 05:31:18;;;;;;;18.13;5.53;;;;;;;9.11;71.90;100467.78;124802;1105;104245;-79
2023/04/18 05:33:49;;;;;;;18.73;5.10;;;;;;;9.08;71.62;100477.24;124523;1105;104261;-79
2023/04/18 05:36:22;;;;;;;12.10;5.00;;;;;;;9.08;71.97;100480.74;124351;1105;104338;-79
2023/04/18 05:38:53;;;;;;;16.17;4.70;;;;;;;9.11;72.43;100469.52;124325;1105;104188;-76
2023/04/18 05:41:24;;;;;;;21.00;5.27;;;;;;;9.08;72.25;100470.27;124346;1103;104243;-80
2023/04/18 05:43:56;;;;;;;11.10;4.97;;;;;;;9.11;72.39;100469.52;124453;1103;104203;-77
2023/04/18 05:46:30;;;;;;;11.00;4.30;;;;;;;9.17;73.47;100469.77;124684;1102;104316;-76
2023/04/18 05:49:04;;;;;;;12.10;5.00;;;;;;;9.20;74.24;100463.77;124810;1105;104261;-76
2023/04/18 05:51:36;;;;;;;14.90;5.40;;;;;;;9.28;73.80;100472.83;124754;1102;102851;-76
2023/04/18 05:54:08;;;;;;;60.87;11.07;;;;;;;9.35;73.54;100465.28;124061;1103;104421;-75
2023/04/18 05:56:41;;;;;;;24.27;5.40;;;;;;;9.50;75.52;100462.35;124043;1105;104226;-77
2023/04/18 05:59:12;;;;;;;13.10;4.57;;;;;;;9.64;74.79;100467.25;124922;1105;104246;-75
2023/04/18 06:01:44;;;;;;;16.10;5.37;;;;;;;9.81;76.55;100467.91;124732;1105;102721;-76
2023/04/18 06:04:19;;;;;;;16.27;5.57;;;;;;;9.90;77.19;100453.41;124968;1105;104185;-77
2023/04/18 06:06:48;;;;;;;;;;;;;;;10.03;76.33;100461.73;124810;1102;108163;-78
2023/04/18 06:09:23;;;;;;;13.77;5.00;;;;;;;10.21;74.88;100465.04;124620;1102;102783;-79
2023/04/18 06:11:58;;;;;;;18.10;5.10;;;;;;;10.39;75.81;100469.19;124636;1101;104172;-80
2023/04/18 06:14:31;;;;;;;13.70;5.13;;;;;;;10.56;75.62;100469.80;124620;1102;106614;-79
2023/04/18 06:17:06;;;;;;;15.40;5.13;;;;;;;10.62;75.58;100475.26;124539;1102;118614;-78
2023/04/18 06:19:39;;;;;;;19.40;5.65;;;;;;;10.73;75.83;100468.64;124608;1102;104175;-81
2023/04/18 06:22:14;;;;;;;13.38;5.65;;;;;;;10.86;75.67;100469.06;124615;1102;104644;-79
2023/04/18 06:24:54;;;;;;;16.67;5.50;;;;;;;11.09;75.92;100473.34;125495;1102;102836;-81
2023/04/18 06:27:29;;;;;;;13.87;4.73;;;;;;;11.31;76.71;100466.17;125496;1102;102092;-83
2023/04/18 06:30:09;;;;;;;14.23;4.67;;;;;;;11.42;76.53;100475.31;125492;1102;102976;-80
2023/04/18 06:32:42;;;;;;;13.80;5.00;;;;;;;11.43;75.96;100468.31;125510;1102;102076;-81
2023/04/18 06:35:16;;;;;;;17.80;5.67;;;;;;;11.48;76.10;100465.00;125404;1105;103321;-83
2023/04/18 06:37:52;;;;;;;19.17;5.22;;;;;;;11.59;76.29;100459.16;125181;1102;104274;-81
2023/04/18 06:40:29;;;;;;;17.13;6.47;;;;;;;11.62;76.50;100467.14;125307;1102;103049;-82
2023/04/18 06:43:05;;;;;;;18.93;6.87;;;;;;;11.76;76.68;100463.19;125366;1102;104246;-81
2023/04/18 06:45:43;;;;;;;67.37;13.63;;;;;;;11.81;76.64;100456.36;125223;1105;102355;-84
2023/04/18 06:48:16;;;;;;;64.43;15.60;;;;;;;11.82;78.67;100451.98;125314;1101;102843;-82
2023/04/18 06:50:50;;;;;;;74.13;15.80;;;;;;;11.77;77.84;100441.33;125277;1103;103505;-81
2023/04/18 06:53:27;;;;;;;33.17;9.53;;;;;;;11.69;78.75;100450.73;125224;1106;104173;-83
2023/04/18 06:55:59;;;;;;;34.40;8.53;;;;;;;11.60;77.98;100448.70;125227;1105;102723;-83
2023/04/18 06:58:39;;;;;;;21.07;7.80;;;;;;;11.59;78.88;100449.53;125297;1102;102904;-81
2023/04/18 07:01:11;;;;;;;18.27;6.80;;;;;;;11.62;78.71;100456.63;125430;1102;102228;-83
2023/04/18 07:03:44;;;;;;;16.30;5.87;;;;;;;11.74;78.52;100449.12;124538;1105;104281;-85
2023/04/18 07:06:17;;;;;;;;;;;;;;;11.90;78.75;100449.58;125497;1102;102102;-85
2023/04/18 07:08:51;;;;;;;12.00;4.87;;;;;;;12.01;77.49;100451.72;125473;1102;102878;-82
2023/04/18 07:11:26;;;;;;;;;;;;;;;12.04;76.30;100454.44;124415;1103;104169;-84
2023/04/18 07:14:05;;;;;;;17.77;5.57;;;;;;;12.06;76.57;100462.38;125336;1105;103799;-82
2023/04/18 07:16:41;;;;;;;12.83;4.70;;;;;;;12.05;76.46;100455.32;124426;1102;101911;-80
2023/04/18 07:19:21;;;;;;;15.47;4.63;;;;;;;12.04;76.71;100472.85;124594;1105;104172;-80
2023/04/18 07:21:54;;;;;;;12.77;4.30;;;;;;;11.99;76.00;100470.92;124736;1102;102891;-81
2023/04/18 07:24:33;;;;;;;15.87;4.80;;;;;;;11.97;76.23;100470.87;125359;1103;103057;-79
2023/04/18 07:27:14;;;;;;;10.65;4.12;;;;;;;12.07;76.10;100477.28;125363;1103;102401;-82
2023/04/18 07:29:51;;;;;;;8.63;3.97;;;;;;;12.15;75.91;100475.77;124592;1102;104220;-81
2023/04/18 07:32:25;;;;;;;13.00;4.10;;;;;;;12.14;75.05;100479.27;124725;1102;103016;-82
2023/04/18 07:34:57;;;;;;;8.27;3.80;;;;;;;12.09;75.73;100474.70;124717;1102;102247;-77
2023/04/18 07:37:30;;;;;;;10.00;4.33;;;;;;;12.08;75.73;100473.83;124586;1102;104251;-81
2023/04/18 07:40:02;;;;;;;13.20;4.80;;;;;;;12.23;76.02;100482.16;124570;1102;104254;-76
2023/04/18 07:42:34;;;;;;;12.63;4.50;;;;;;;12.35;75.68;100473.70;124678;1102;102190;-79
2023/04/18 07:45:11;;;;;;;13.00;4.70;;;;;;;12.39;75.26;100474.70;124914;1102;104725;-80
2023/04/18 07:47:43;;;;;;;14.60;4.60;;;;;;;12.39;75.88;100478.22;125395;1102;102112;-81
2023/04/18 07:50:19;;;;;;;15.20;4.63;;;;;;;12.49;76.05;100474.09;125342;1105;102688;-75
2023/04/18 07:52:54;;;;;;;14.37;5.00;;;;;;;12.50;75.76;100475.88;124551;1102;103637;-79
2023/04/18 07:55:27;;;;;;;14.67;4.37;;;;;;;12.57;75.39;100476.92;124596;1102;103152;-76
2023/04/18 07:58:05;;;;;;;9.00;4.20;;;;;;;12.71;75.52;100479.94;124397;1102;104198;-79
2023/04/18 08:00:43;;;;;;;14.43;4.83;;;;;;;12.81;75.29;100481.97;124486;1105;104255;-80
2023/04/18 08:03:15;;;;;;;13.73;4.90;;;;;;;12.93;75.37;100484.02;125284;1102;102478;-78
2023/04/18 08:05:51;;;;;;;10.00;4.30;;;;;;;12.89;74.86;100493.59;124529;1102;104344;-79
2023/04/18 08:08:29;;;;;;;14.85;4.60;;;;;;;12.91;75.12;100491.00;124471;1105;104261;-80
2023/04/18 08:11:09;;;;;;;15.63;4.70;;;;;;;12.89;74.64;100490.95;125346;1102;102891;-79
2023/04/18 08:14:03;;;;;;;10.23;3.87;;;;;;;12.98;75.38;100481.50;125352;1102;102760;-79
2023/04/18 08:16:45;;;;;;;11.83;4.40;;;;;;;13.04;75.03;100487.84;125454;1102;102668;-80
2023/04/18 08:19:20;;;;;;;11.03;4.17;;;;;;;13.08;74.55;100487.05;125458;1102;104165;-80
2023/04/18 08:22:12;;;;;;;15.67;4.90;;;;;;;13.11;75.03;100495.02;124747;1102;102255;-80
2023/04/18 08:24:52;;;;;;;13.43;4.67;;;;;;;13.21;75.36;100490.87;124826;1102;104236;-80
2023/04/18 08:27:26;;;;;;;13.00;4.53;;;;;;;13.27;75.25;100503.31;125376;1105;102402;-77
2023/04/18 08:29:59;;;;;;;12.30;4.33;;;;;;;13.31;74.88;100499.91;124822;1102;103431;-78
2023/04/18 08:32:48;;;;;;;;;;;;;;;;;;;;;
2023/04/18 08:35:32;;;;;;;13.77;4.30;;;;;;;13.47;74.54;100507.35;124425;1102;103335;-77
2023/04/18 08:38:08;;;;;;;10.30;4.40;;;;;;;13.55;73.69;100504.91;124725;1102;102676;-78
2023/04/18 08:40:46;;;;;;;12.10;4.33;;;;;;;13.70;73.36;100506.10;124803;1102;104319;-81
2023/04/18 08:43:18;;;;;;;11.07;3.87;;;;;;;13.80;73.60;100513.38;124697;1102;104446;-82
2023/04/18 08:45:51;;;;;;;12.83;4.57;;;;;;;13.80;72.77;100505.47;125340;1105;103087;-80
2023/04/18 08:48:23;;;;;;;12.10;4.60;;;;;;;13.87;73.71;100496.85;124669;1102;103432;-78
2023/04/18 08:51:03;;;;;;;18.37;5.13;;;;;;;13.94;72.55;100495.23;124629;1102;104303;-77
2023/04/18 08:53:35;;;;;;;9.17;4.03;;;;;;;13.88;73.21;100501.25;124962;1103;104294;-81
2023/04/18 08:56:13;;;;;;;10.53;4.23;;;;;;;13.88;72.93;100492.45;124923;1105;104258;-85
2023/04/18 08:58:45;;;;;;;11.13;3.80;;;;;;;13.94;73.09;100498.75;125428;1105;102275;-80
2023/04/18 09:01:22;;;;;;;14.73;4.83;;;;;;;13.83;72.35;100501.14;125000;1106;104292;-79
2023/04/18 09:03:55;;;;;;;12.37;4.53;;;;;;;13.72;72.80;100497.38;124903;1102;102937;-80
2023/04/18 09:06:29;;;;;;;14.73;4.33;;;;;;;13.65;73.30;100501.64;124825;1105;103395;-80
2023/04/18 09:09:03;;;;;;;13.60;4.43;;;;;;;13.53;73.27;100496.08;125002;1102;102579;-80
2023/04/18 09:11:36;;;;;;;17.13;4.40;;;;;;;13.38;72.80;100498.34;125011;1102;102655;-82
2023/04/18 09:14:16;;;;;;;;;;;;;;;13.14;72.75;100488.95;124907;1105;104345;-80
2023/04/18 09:16:49;;;;;;;13.13;5.30;;;;;;;13.16;72.94;100508.31;124826;1102;103097;-81
2023/04/18 09:19:23;;;;;;;14.80;4.73;;;;;;;13.10;73.47;100506.44;125045;1105;104380;-80
2023/04/18 09:22:01;;;;;;;14.83;5.30;;;;;;;13.02;73.70;100513.23;125008;1102;104291;-76
2023/04/18 09:24:33;;;;;;;15.50;5.50;;;;;;;12.98;73.77;100510.47;124919;1102;103266;-79
2023/04/18 09:27:13;;;;;;;14.27;5.10;;;;;;;13.16;75.02;100513.58;124662;1102;104245;-78
2023/04/18 09:29:51;;;;;;;10.67;4.60;;;;;;;13.52;74.64;100510.09;124416;1102;104344;-83
2023/04/18 09:32:29;;;;;;;10.87;4.50;;;;;;;13.78;75.12;100512.47;124531;1102;104272;-79
2023/04/18 09:35:09;;;;;;;12.33;4.67;;;;;;;13.90;74.35;100510.11;125270;1103;104304;-81
2023/04/18 09:37:53;;;;;;;10.97;4.83;;;;;;;14.00;75.28;100503.28;124316;1102;104173;-80
2023/04/18 09:40:29;;;;;;;11.93;4.77;;;;;;;14.07;74.71;100504.30;125151;1102;104252;-78
2023/04/18 09:43:16;;;;;;;16.10;4.65;;;;;;;14.10;74.96;100493.80;124694;1102;102529;-79
2023/04/18 09:45:49;;;;;;;16.45;5.20;;;;;;;14.01;74.38;100490.12;124488;1106;104128;-78
2023/04/18 09:48:20;;;;;;;10.43;4.70;;;;;;;13.95;75.09;100494.38;124546;1102;104355;-75
2023/04/18 09:50:57;;;;;;;14.07;5.00;;;;;;;13.89;74.54;100500.41;124160;1105;104316;-75
2023/04/18 09:53:38;;;;;;;12.83;5.43;;;;;;;13.90;74.92;100502.20;124569;1102;104335;-78
2023/04/18 09:56:19;;;;;;;12.77;4.73;;;;;;;13.88;74.86;100503.01;124402;1105;103266;-77
2023/04/18 09:59:03;;;;;;;11.63;4.90;;;;;;;13.84;74.85;100502.94;124573;1102;102538;-77
2023/04/18 10:01:40;;;;;;;12.33;5.08;;;;;;;13.88;74.76;100506.52;124517;1102;102098;-76
2023/04/18 10:04:18;;;;;;;14.10;5.37;;;;;;;13.92;75.13;100505.75;124717;1106;104159;-79
2023/04/18 10:06:55;;;;;;;13.10;5.17;;;;;;;13.98;75.50;100500.61;124883;1105;102215;-79
2023/04/18 10:09:32;;;;;;;13.90;5.13;;;;;;;14.07;76.60;100499.93;125445;1102;102355;-80
2023/04/18 10:12:11;;;;;;;15.25;4.85;;;;;;;14.10;75.26;100496.45;124853;1105;119303;-80
2023/04/18 10:14:45;;;;;;;12.60;5.20;;;;;;;14.06;75.78;100494.62;124954;1105;104322;-80
2023/04/18 10:17:24;;;;;;;13.83;4.80;;;;;;;13.96;75.39;100491.78;125544;1103;103092;-77
2023/04/18 10:20:23;;;;;;;11.43;4.83;;;;;;;13.94;75.47;100492.59;124970;1105;104227;-78
2023/04/18 10:22:57;;;;;;;13.35;4.55;;;;;;;13.99;75.40;100491.84;116168;1106;10001694;-78
2023/04/18 10:25:52;;;;;;;12.40;4.50;;;;;;;14.11;76.11;100490.32;124806;1103;104223;-78
2023/04/18 10:28:28;;;;;;;14.57;6.10;;;;;;;14.20;76.85;100486.11;124887;1105;104213;-80
2023/04/18 10:31:11;;;;;;;14.27;4.77;;;;;;;14.16;76.18;100497.48;124818;1105;103007;-80
2023/04/18 10:33:53;;;;;;;11.63;5.20;;;;;;;14.13;75.50;100500.06;124819;1105;102406;-78
2023/04/18 10:36:27;;;;;;;12.60;4.67;;;;;;;14.08;76.34;100496.41;124730;1105;103123;-79
2023/04/18 10:39:03;;;;;;;14.30;4.93;;;;;;;13.97;75.46;100497.94;124668;1105;104300;-79
2023/04/18 10:41:39;;;;;;;12.20;4.80;;;;;;;13.94;75.26;100503.14;124758;1105;103026;-81
2023/04/18 10:44:22;;;;;;;15.03;5.40;;;;;;;13.98;75.20;100494.45;124760;1105;102794;-81
2023/04/18 10:47:25;;;;;;;66.63;12.03;;;;;;;14.04;75.83;100491.95;124889;1105;102568;-80
2023/04/18 10:50:05;;;;;;;18.27;5.62;;;;;;;14.17;76.04;100482.53;116284;1105;10001582;-79
2023/04/18 10:52:39;;;;;;;12.83;4.90;;;;;;;14.25;76.27;100491.48;125464;1104;104290;-81
2023/04/18 10:55:25;;;;;;;14.33;4.93;;;;;;;14.26;75.34;100485.36;125519;1105;102913;-81
2023/04/18 10:57:58;;;;;;;13.53;4.67;;;;;;;14.34;75.09;100482.88;125300;1105;104220;-81
2023/04/18 11:00:31;;;;;;;14.68;5.55;;;;;;;14.55;75.51;100482.39;124662;1103;103334;-81
2023/04/18 11:03:08;;;;;;;11.33;4.77;;;;;;;14.68;75.73;100487.09;125409;1105;102302;-77
2023/04/18 11:05:43;;;;;;;15.32;5.30;;;;;;;14.64;74.65;100487.88;124681;1105;102314;-80
2023/04/18 11:08:31;;;;;;;16.67;4.93;;;;;;;14.68;75.14;100488.86;124743;1105;102126;-79
2023/04/18 11:11:08;;;;;;;10.30;4.87;;;;;;;14.71;75.20;100487.16;125181;1105;102803;-78
2023/04/18 11:13:56;;;;;;;14.80;5.00;;;;;;;14.68;75.34;100487.09;124599;1104;104294;-79
2023/04/18 11:16:33;;;;;;;14.53;5.03;;;;;;;14.58;74.04;100482.45;124548;1105;104221;-76
2023/04/18 11:19:20;;;;;;;16.20;5.43;;;;;;;14.62;75.10;100478.17;124627;1105;104169;-79
2023/04/18 11:24:37;;;;;;;11.50;4.50;;;;;;;14.53;73.67;100473.56;124644;1105;104364;-81
2023/04/18 11:27:11;;;;;;;12.60;4.60;;;;;;;14.48;74.02;100485.80;124230;1102;104331;-80
2023/04/18 11:29:46;;;;;;;15.00;4.97;;;;;;;14.44;73.82;100486.58;124439;1102;104297;-81
2023/04/18 11:32:20;;;;;;;16.90;5.07;;;;;;;14.42;73.45;100483.03;124292;1105;104338;-82
2023/04/18 11:34:55;;;;;;;16.77;5.50;;;;;;;14.42;74.18;100481.27;124414;1102;102423;-78
2023/04/18 11:37:28;;;;;;;16.13;5.60;;;;;;;14.48;74.24;100476.11;124390;1105;104334;-80
2023/04/18 11:39:59;;;;;;;14.30;5.13;;;;;;;14.55;74.27;100477.11;124332;1105;103418;-80
2023/04/18 11:42:35;;;;;;;15.03;5.17;;;;;;;14.67;74.50;100464.17;124758;1102;102751;-81